Terminal Aerodrome Forecast
Issued by NWS

Home | Current Version | Previous Version | Graphics & Text | Print | Product List | Glossary On
Versions: 1 2 3 4 5 6 7 8 9 10 11 12 13 14 15 16 17 18 19 20 21 22 23 24
000
FTUS43 KICT 191735
TAFHUT
TAF
KHUT 191735Z 1918/2018 18005KT P6SM OVC005
     FM192100 18005KT P6SM BKN012
     FM200300 19005KT 3SM BR SCT007 BKN015
     FM200800 19005KT 2SM BR BKN005
     FM201600 19009KT 5SM BR BKN010=

USA.gov is the U.S. government's official web portal to all federal, state and local government web resources and services.